Time;durP1;ratioP1;P1;durP2;ratioP2;P2;SDS_P1;SDS_P2;PMS_P1;PMS_P2;Temp;Humidity;BMP_temperature;BMP_pressure;BME280_temperature;BME280_humidity;BME280_pressure;Samples;Min_cycle;Max_cycle;Signal;HPM_P1;HPM_P2
2023/06/13 00:01:48;;;;;;;23.58;6.75;;;;;;;30.74;73.31;97402.28;4966550;28;20061;-60
2023/06/13 00:04:23;;;;;;;22.88;7.78;;;;;;;30.71;73.91;97402.22;4964654;28;20412;-61
2023/06/13 00:06:57;;;;;;;24.13;7.55;;;;;;;30.70;73.74;97406.88;4966800;28;20558;-61
2023/06/13 00:09:28;;;;;;;16.60;7.03;;;;;;;30.71;74.29;97402.97;4965816;28;20055;-62
2023/06/13 00:11:58;;;;;;;20.67;7.22;;;;;;;30.70;74.75;97406.88;4966185;28;20043;-60
2023/06/13 00:14:28;;;;;;;24.45;7.22;;;;;;;30.73;74.53;97408.91;4965466;28;20391;-61
2023/06/13 00:16:58;;;;;;;23.60;8.45;;;;;;;30.76;74.68;97412.84;4952784;28;20121;-60
2023/06/13 00:19:28;;;;;;;23.08;7.30;;;;;;;30.76;74.99;97413.63;4965283;28;20043;-61
2023/06/13 00:21:58;;;;;;;25.15;8.02;;;;;;;30.75;73.87;97414.81;4956561;28;20130;-61
2023/06/13 00:24:27;;;;;;;23.10;7.53;;;;;;;30.76;73.63;97415.56;4953695;28;20057;-61
2023/06/13 00:26:57;;;;;;;27.20;8.55;;;;;;;30.77;73.68;97411.69;4966374;28;20051;-61
2023/06/13 00:29:26;;;;;;;28.30;7.97;;;;;;;30.80;73.72;97421.16;4964274;28;20543;-61
2023/06/13 00:31:56;;;;;;;21.60;7.85;;;;;;;30.82;75.28;97422.38;4947722;28;20066;-61
2023/06/13 00:34:25;;;;;;;22.02;7.75;;;;;;;30.84;75.26;97417.34;4967956;28;20058;-61
2023/06/13 00:36:55;;;;;;;30.48;8.38;;;;;;;30.84;76.04;97425.56;4961557;28;20046;-61
2023/06/13 00:39:25;;;;;;;23.02;7.90;;;;;;;30.86;75.29;97427.91;4960777;28;20483;-61
2023/06/13 00:41:55;;;;;;;25.48;8.52;;;;;;;30.90;74.66;97426.84;4974805;28;20051;-61
2023/06/13 00:44:24;;;;;;;26.00;8.63;;;;;;;30.95;75.05;97423.84;4938907;28;20674;-61
2023/06/13 00:46:56;;;;;;;40.35;11.40;;;;;;;30.98;74.72;97436.03;4958898;28;20047;-61
2023/06/13 00:49:26;;;;;;;26.42;8.68;;;;;;;31.02;74.97;97429.53;4960582;28;20039;-61
2023/06/13 00:52:04;;;;;;;31.50;10.98;;;;;;;31.05;75.50;97439.75;4969511;28;20050;-62
2023/06/13 00:54:37;;;;;;;32.35;9.20;;;;;;;31.10;74.99;97435.94;4948992;28;20051;-61
2023/06/13 00:57:08;;;;;;;26.50;8.80;;;;;;;31.16;75.65;97439.97;4960149;28;20456;-61
2023/06/13 00:59:39;;;;;;;26.13;9.15;;;;;;;31.17;75.87;97434.13;4957972;28;20043;-61
2023/06/13 01:02:08;;;;;;;26.38;8.48;;;;;;;31.19;77.02;97451.00;4952889;28;20054;-61
2023/06/13 01:04:39;;;;;;;29.90;9.13;;;;;;;31.19;77.40;97453.75;4959108;28;20058;-61
2023/06/13 01:07:11;;;;;;;25.73;9.10;;;;;;;31.26;75.78;97455.81;4969101;28;20123;-61
2023/06/13 01:09:43;;;;;;;26.10;9.90;;;;;;;31.30;75.04;97458.63;4960130;28;20066;-61
2023/06/13 01:12:32;;;;;;;36.03;10.52;;;;;;;31.35;73.70;97453.69;4958062;28;20379;-61
2023/06/13 01:15:17;;;;;;;31.90;11.70;;;;;;;31.49;74.74;97467.66;4958357;28;20061;-61
2023/06/13 01:17:57;;;;;;;39.22;10.95;;;;;;;31.57;75.66;97471.38;4955566;28;20046;-61
2023/06/13 01:20:28;;;;;;;40.47;11.07;;;;;;;31.63;73.58;97467.19;4960080;28;20059;-61
2023/06/13 01:23:25;;;;;;;27.70;12.15;;;;;;;31.70;68.76;97463.81;4969600;28;20660;-61
2023/06/13 01:26:12;;;;;;;39.20;10.30;;;;;;;31.82;68.30;97461.69;4973547;28;20043;-61
2023/06/13 01:28:47;;;;;;;31.35;10.90;;;;;;;31.96;71.77;97463.94;4967992;28;20053;-61
2023/06/13 01:31:19;;;;;;;29.90;9.70;;;;;;;32.01;73.58;97469.91;4961693;28;20043;-62
2023/06/13 01:33:50;;;;;;;33.58;11.05;;;;;;;32.05;70.95;97469.97;4957805;28;20479;-62
2023/06/13 01:36:20;;;;;;;25.85;12.13;;;;;;;32.11;67.39;97478.72;4961525;28;20054;-62
2023/06/13 01:38:50;;;;;;;32.90;10.73;;;;;;;32.24;67.35;97486.41;4956720;28;20474;-61
2023/06/13 01:41:19;;;;;;;37.65;10.38;;;;;;;32.37;68.54;97493.31;4968616;28;20061;-63
2023/06/13 01:43:49;;;;;;;30.67;11.10;;;;;;;32.49;68.31;97495.88;4960448;28;20057;-62
2023/06/13 01:46:26;;;;;;;36.53;11.98;;;;;;;32.57;64.44;97490.53;4957260;28;20074;-62
2023/06/13 01:49:16;;;;;;;37.20;11.73;;;;;;;32.76;65.95;97502.25;4956364;28;20062;-61
2023/06/13 01:51:51;;;;;;;33.72;11.02;;;;;;;32.89;68.04;97500.88;4968648;28;20043;-62
2023/06/13 01:54:23;;;;;;;34.67;11.57;;;;;;;33.00;65.60;97497.53;4954319;28;21402;-62
2023/06/13 01:56:56;;;;;;;42.47;11.57;;;;;;;33.16;62.57;97498.97;4959860;28;20054;-62
2023/06/13 01:59:27;;;;;;;29.88;11.63;;;;;;;33.31;60.58;97505.47;4961133;28;20042;-62
2023/06/13 02:01:58;;;;;;;41.45;12.68;;;;;;;33.49;61.45;97508.47;4962069;28;20053;-61
2023/06/13 02:04:29;;;;;;;29.63;12.27;;;;;;;33.70;61.11;97508.78;4968628;28;20041;-61
2023/06/13 02:06:58;;;;;;;40.58;11.95;;;;;;;33.78;65.37;97516.72;4958092;28;20054;-62
2023/06/13 02:09:27;;;;;;;41.38;15.63;;;;;;;33.98;59.42;97513.84;4959716;28;20664;-62
2023/06/13 02:11:57;;;;;;;44.90;14.05;;;;;;;34.22;59.42;97516.09;4964446;28;20142;-62
2023/06/13 02:14:27;;;;;;;49.10;14.70;;;;;;;34.36;60.98;97513.50;4958157;28;20057;-62
2023/06/13 02:17:02;;;;;;;32.50;13.75;;;;;;;34.38;62.44;97521.38;4943939;28;20053;-64
2023/06/13 02:19:39;;;;;;;34.40;14.85;;;;;;;34.55;61.84;97516.06;4957246;28;20105;-63
2023/06/13 02:22:09;;;;;;;45.08;14.25;;;;;;;34.74;58.21;97523.34;4960685;28;20049;-62
2023/06/13 02:24:47;;;;;;;33.58;14.00;;;;;;;35.01;57.07;97532.19;4959222;28;20449;-62
2023/06/13 02:27:20;;;;;;;39.65;15.50;;;;;;;35.22;55.67;97540.66;4944544;28;20395;-62
2023/06/13 02:29:51;;;;;;;38.50;12.60;;;;;;;35.26;58.22;97535.97;4958695;28;20077;-62
2023/06/13 02:32:22;;;;;;;35.78;13.30;;;;;;;35.45;58.51;97535.69;4937900;28;20046;-63
2023/06/13 02:34:52;;;;;;;41.60;14.32;;;;;;;35.51;57.50;97536.13;4967651;28;20129;-63
2023/06/13 02:37:21;;;;;;;37.38;13.55;;;;;;;35.75;57.78;97543.78;4954179;28;20168;-63
2023/06/13 02:39:51;;;;;;;36.72;14.40;;;;;;;35.94;56.57;97545.41;4958997;28;20050;-63
2023/06/13 02:42:20;;;;;;;49.35;14.45;;;;;;;35.89;53.23;97543.06;4957570;28;20104;-63
2023/06/13 02:44:50;;;;;;;42.53;15.25;;;;;;;35.99;53.34;97536.78;4960726;28;20657;-62
2023/06/13 02:47:21;;;;;;;41.08;14.95;;;;;;;36.21;53.60;97540.41;4955498;28;20047;-63
2023/06/13 02:49:50;;;;;;;41.55;16.77;;;;;;;36.29;53.42;97542.81;4967274;28;20129;-62
2023/06/13 02:52:21;;;;;;;42.53;16.65;;;;;;;36.37;53.77;97541.69;4957262;28;20055;-62
2023/06/13 02:54:51;;;;;;;41.45;17.25;;;;;;;36.41;53.93;97536.16;4944499;28;20054;-61
2023/06/13 02:57:20;;;;;;;47.45;17.98;;;;;;;36.41;56.25;97536.16;4953165;28;20059;-61
2023/06/13 02:59:50;;;;;;;41.08;18.80;;;;;;;36.55;52.33;97535.41;4960492;28;20713;-62
2023/06/13 03:02:20;;;;;;;44.85;19.77;;;;;;;36.75;54.35;97544.91;4955824;28;20526;-60
2023/06/13 03:04:50;;;;;;;40.00;16.92;;;;;;;36.61;51.96;97550.41;4962812;28;20057;-61
2023/06/13 03:07:20;;;;;;;41.58;15.88;;;;;;;36.59;52.21;97548.06;4953555;28;20057;-62
2023/06/13 03:09:50;;;;;;;43.45;15.02;;;;;;;36.52;53.27;97555.47;4956424;28;20486;-62
2023/06/13 03:12:19;;;;;;;45.78;14.27;;;;;;;36.56;51.80;97553.53;4957436;28;20055;-64
2023/06/13 03:14:50;;;;;;;30.40;13.95;;;;;;;36.83;52.84;97557.53;4956798;28;20062;-63
2023/06/13 03:17:19;;;;;;;33.70;14.90;;;;;;;36.73;51.55;97559.13;4956999;28;20055;-63
2023/06/13 03:19:50;;;;;;;33.78;12.77;;;;;;;36.82;49.62;97544.94;4949243;28;20078;-61
2023/06/13 03:22:30;;;;;;;41.13;13.80;;;;;;;36.75;50.41;97547.66;4953355;28;20047;-64
2023/06/13 03:25:03;;;;;;;28.90;12.13;;;;;;;36.84;49.71;97546.09;4963133;28;20051;-61
2023/06/13 03:27:40;;;;;;;28.63;10.45;;;;;;;36.75;47.83;97545.69;4954001;28;20070;-62
2023/06/13 03:30:10;;;;;;;31.60;9.63;;;;;;;36.91;49.43;97554.38;4948733;28;20202;-62
2023/06/13 03:32:42;;;;;;;44.05;12.32;;;;;;;36.91;49.99;97557.13;4957225;28;20143;-61
2023/06/13 03:35:11;;;;;;;31.73;10.43;;;;;;;37.06;50.31;97543.38;4954046;28;20557;-61
2023/06/13 03:37:41;;;;;;;33.40;10.63;;;;;;;37.01;48.53;97543.72;4958775;28;20161;-63
2023/06/13 03:40:10;;;;;;;30.48;10.55;;;;;;;37.22;48.54;97552.81;4957359;28;20458;-63
2023/06/13 03:42:40;;;;;;;31.02;9.90;;;;;;;37.37;48.30;97548.06;4959368;28;20666;-63
2023/06/13 03:45:09;;;;;;;27.75;10.68;;;;;;;37.37;48.55;97555.56;4957091;28;20047;-64
2023/06/13 03:47:39;;;;;;;30.05;12.48;;;;;;;37.69;49.92;97550.81;4959672;28;20057;-65
2023/06/13 03:50:09;;;;;;;31.50;8.02;;;;;;;37.68;44.92;97540.94;4955470;28;20133;-61
2023/06/13 03:52:40;;;;;;;26.67;8.05;;;;;;;37.85;47.71;97544.81;4958756;28;20157;-64
2023/06/13 03:55:11;;;;;;;25.95;9.50;;;;;;;37.90;48.14;97534.16;4957192;28;20047;-64
2023/06/13 03:57:41;;;;;;;37.88;8.23;;;;;;;37.99;42.72;97540.06;4963600;28;20051;-63
2023/06/13 04:00:11;;;;;;;27.98;7.78;;;;;;;38.10;43.96;97535.28;4952965;28;20070;-63
2023/06/13 04:02:42;;;;;;;30.25;7.97;;;;;;;38.25;43.95;97540.72;4966469;28;20076;-61
2023/06/13 04:05:13;;;;;;;26.23;7.03;;;;;;;38.16;44.17;97538.41;4958520;28;20047;-62
2023/06/13 04:07:44;;;;;;;29.60;8.77;;;;;;;38.28;41.20;97528.88;4955596;28;20100;-62
2023/06/13 04:10:14;;;;;;;26.42;8.98;;;;;;;38.35;43.60;97539.88;4966652;28;20074;-62
2023/06/13 04:12:44;;;;;;;19.98;7.53;;;;;;;38.74;43.75;97534.91;4959568;28;20109;-61
2023/06/13 04:15:15;;;;;;;29.25;6.68;;;;;;;38.57;41.21;97531.09;4955315;28;20482;-62
2023/06/13 04:17:44;;;;;;;22.85;7.47;;;;;;;38.24;38.09;97533.66;4963477;28;20055;-64
2023/06/13 04:20:16;;;;;;;24.20;7.28;;;;;;;38.60;41.46;97535.00;4960650;28;20051;-64
2023/06/13 04:22:48;;;;;;;19.92;7.20;;;;;;;38.70;39.41;97541.66;4956162;28;20669;-64
2023/06/13 04:25:20;;;;;;;31.52;7.47;;;;;;;38.90;40.04;97535.25;4959774;28;20445;-63
2023/06/13 04:27:49;;;;;;;27.35;7.50;;;;;;;38.98;37.78;97535.97;4945589;28;20046;-63
2023/06/13 04:30:19;;;;;;;23.15;7.38;;;;;;;39.05;40.08;97542.22;4959323;28;20065;-63
2023/06/13 04:32:49;;;;;;;21.63;9.07;;;;;;;39.07;38.75;97544.59;4959141;28;20133;-63
2023/06/13 04:35:22;;;;;;;30.30;13.13;;;;;;;39.25;37.75;97544.44;4969308;28;20082;-63
2023/06/13 04:37:52;;;;;;;43.00;12.88;;;;;;;39.06;38.02;97541.03;4969467;28;20284;-63
2023/06/13 04:40:23;;;;;;;41.45;13.60;;;;;;;39.00;36.87;97531.56;4969544;28;20061;-63
2023/06/13 04:42:54;;;;;;;34.55;13.15;;;;;;;38.90;38.74;97528.91;4970160;28;20050;-64
2023/06/13 04:45:24;;;;;;;31.00;12.33;;;;;;;39.02;38.19;97529.19;4969737;28;20067;-63
2023/06/13 04:47:57;;;;;;;27.02;9.82;;;;;;;39.28;39.25;97521.44;4966165;28;20493;-63
2023/06/13 04:50:26;;;;;;;36.70;11.32;;;;;;;38.97;36.05;97526.06;4965276;28;20550;-64
2023/06/13 04:52:57;;;;;;;20.95;8.00;;;;;;;39.22;37.42;97523.84;4969859;28;20042;-63
2023/06/13 04:55:32;;;;;;;24.08;7.13;;;;;;;39.26;35.99;97524.59;4957088;28;20763;-62
2023/06/13 04:58:02;;;;;;;20.25;6.40;;;;;;;39.17;36.46;97520.75;4967498;28;20043;-64
2023/06/13 05:00:32;;;;;;;22.63;5.82;;;;;;;39.36;38.41;97523.75;4968139;28;20047;-63
2023/06/13 05:03:01;;;;;;;15.32;6.18;;;;;;;39.45;36.07;97524.06;4956529;28;20050;-63
2023/06/13 05:05:31;;;;;;;15.70;6.25;;;;;;;39.45;34.88;97524.06;4968559;28;20065;-63
2023/06/13 05:08:00;;;;;;;18.98;5.50;;;;;;;39.38;37.90;97520.59;4961110;28;20055;-63
2023/06/13 05:10:30;;;;;;;21.35;5.80;;;;;;;39.34;34.19;97525.38;4969420;28;20530;-62
2023/06/13 05:13:01;;;;;;;21.85;6.15;;;;;;;39.46;36.54;97513.75;4967985;28;20117;-62
2023/06/13 05:15:30;;;;;;;17.23;6.32;;;;;;;39.46;36.22;97514.56;4968002;28;20142;-63
2023/06/13 05:18:00;;;;;;;20.25;6.72;;;;;;;39.41;34.69;97503.13;4968284;28;20096;-62
2023/06/13 05:20:30;;;;;;;18.50;6.35;;;;;;;39.53;34.84;97503.38;4950180;28;20847;-62
2023/06/13 05:23:01;;;;;;;20.33;7.00;;;;;;;39.79;37.66;97507.47;4960409;28;20043;-62
2023/06/13 05:25:31;;;;;;;19.42;7.28;;;;;;;39.86;38.02;97509.38;4968148;28;20050;-62
2023/06/13 05:28:01;;;;;;;21.02;7.15;;;;;;;39.62;35.56;97505.66;4963939;28;20061;-62
2023/06/13 05:30:31;;;;;;;19.77;6.72;;;;;;;39.64;36.66;97492.19;4965583;28;20530;-62
2023/06/13 05:33:00;;;;;;;23.40;7.25;;;;;;;39.52;34.85;97492.72;4967793;28;20656;-62
2023/06/13 05:35:29;;;;;;;16.63;6.65;;;;;;;39.31;35.32;97487.38;4967785;28;20159;-63
2023/06/13 05:38:18;;;;;;;20.25;7.10;;;;;;;39.28;36.28;97483.44;4967116;28;20764;-63
2023/06/13 05:40:48;;;;;;;21.13;5.30;;;;;;;39.31;35.29;97479.06;4961429;28;20043;-66
2023/06/13 05:43:19;;;;;;;28.58;4.88;;;;;;;39.41;35.48;97473.44;4952684;28;20050;-67
2023/06/13 05:45:49;;;;;;;13.93;5.40;;;;;;;39.37;34.05;97474.66;4958794;28;20073;-63
2023/06/13 05:48:18;;;;;;;34.30;7.50;;;;;;;39.26;36.98;97471.19;4944813;28;20125;-64
2023/06/13 05:50:47;;;;;;;22.55;6.10;;;;;;;39.42;34.13;97471.44;4968569;28;20054;-65
2023/06/13 05:53:17;;;;;;;23.63;5.65;;;;;;;39.41;33.39;97478.97;4967738;28;20102;-64
2023/06/13 05:55:46;;;;;;;17.38;5.60;;;;;;;39.43;34.47;97465.50;4968736;28;20812;-62
2023/06/13 05:58:15;;;;;;;20.60;5.60;;;;;;;39.47;34.20;97471.78;4967044;28;20054;-62
2023/06/13 06:00:45;;;;;;;16.67;4.95;;;;;;;39.49;35.61;97468.56;4967272;28;20105;-62
2023/06/13 06:03:15;;;;;;;25.52;5.18;;;;;;;39.48;34.25;97470.56;4966934;28;20047;-62
2023/06/13 06:05:46;;;;;;;20.50;5.18;;;;;;;39.43;32.79;97461.94;4966188;28;20058;-62
2023/06/13 06:08:16;;;;;;;20.55;4.85;;;;;;;39.55;38.44;97468.91;4966222;28;20384;-62
2023/06/13 06:10:45;;;;;;;16.98;4.43;;;;;;;39.71;34.48;97469.09;4963485;28;20061;-62
2023/06/13 06:13:14;;;;;;;16.10;4.32;;;;;;;39.70;34.96;97462.78;4965922;28;20433;-63
2023/06/13 06:15:43;;;;;;;18.48;4.22;;;;;;;39.63;35.21;97456.53;4965439;28;20050;-64
2023/06/13 06:18:13;;;;;;;13.55;3.50;;;;;;;39.32;36.52;97458.47;4966591;28;20814;-63
2023/06/13 06:20:43;;;;;;;13.60;2.95;;;;;;;39.34;33.56;97448.56;4967604;28;20046;-63
2023/06/13 06:23:13;;;;;;;16.58;2.95;;;;;;;39.35;35.28;97455.66;4963580;28;20051;-64
2023/06/13 06:25:43;;;;;;;21.55;3.47;;;;;;;39.31;32.71;97443.03;4967822;28;20047;-64
2023/06/13 06:28:12;;;;;;;14.00;3.28;;;;;;;39.31;37.14;97448.59;4967558;28;20050;-63
2023/06/13 06:30:41;;;;;;;12.85;3.10;;;;;;;39.24;34.74;97454.97;4968244;28;20046;-62
2023/06/13 06:33:11;;;;;;;15.23;3.63;;;;;;;39.23;35.58;97456.16;4966894;28;20046;-62
2023/06/13 06:35:41;;;;;;;13.10;3.50;;;;;;;39.24;37.62;97454.97;4967897;28;20176;-65
2023/06/13 06:38:10;;;;;;;11.35;3.60;;;;;;;39.14;38.10;97455.88;4958308;28;20046;-63
2023/06/13 06:40:39;;;;;;;16.90;4.18;;;;;;;39.11;37.72;97450.38;4968237;28;20356;-63
2023/06/13 06:43:08;;;;;;;16.85;4.22;;;;;;;39.13;38.25;97461.81;4967141;28;20042;-64
2023/06/13 06:45:38;;;;;;;17.05;3.80;;;;;;;39.08;34.90;97455.53;4967903;28;20275;-63
2023/06/13 06:48:07;;;;;;;11.98;3.33;;;;;;;39.13;37.45;97453.50;4958164;28;20400;-64
2023/06/13 06:50:37;;;;;;;10.05;3.50;;;;;;;39.02;37.77;97459.16;4967632;28;20066;-62
2023/06/13 06:53:06;;;;;;;12.55;3.05;;;;;;;39.05;38.81;97450.81;4966009;28;20075;-63
2023/06/13 06:55:36;;;;;;;18.83;3.47;;;;;;;39.09;36.51;97446.03;4967700;28;20049;-63
2023/06/13 06:58:06;;;;;;;16.65;3.85;;;;;;;39.18;36.88;97441.97;4966528;28;20057;-63
2023/06/13 07:00:35;;;;;;;12.02;3.67;;;;;;;39.26;37.30;97441.47;4968118;28;20177;-63
2023/06/13 07:03:07;;;;;;;23.48;3.83;;;;;;;39.28;36.40;97438.31;4966740;28;20112;-63
2023/06/13 07:05:38;;;;;;;24.23;4.50;;;;;;;39.17;35.46;97441.19;4967145;28;20045;-62
2023/06/13 07:08:07;;;;;;;16.63;3.78;;;;;;;39.45;36.39;97438.13;4965945;28;20039;-63
2023/06/13 07:10:37;;;;;;;22.08;3.38;;;;;;;39.64;37.53;97436.72;4967474;28;20062;-62
2023/06/13 07:13:07;;;;;;;22.95;4.07;;;;;;;39.65;34.97;97432.75;4966460;28;20059;-63
2023/06/13 07:15:36;;;;;;;15.32;3.95;;;;;;;39.79;35.39;97421.50;4961847;28;20507;-62
2023/06/13 07:18:08;;;;;;;12.05;3.35;;;;;;;39.77;35.76;97428.66;4962862;28;20078;-63
2023/06/13 07:20:37;;;;;;;11.77;3.42;;;;;;;39.72;35.22;97416.03;4967074;28;20051;-63
2023/06/13 07:23:07;;;;;;;12.90;3.75;;;;;;;39.68;36.22;97420.84;4965898;28;20050;-62
2023/06/13 07:25:36;;;;;;;22.23;4.00;;;;;;;39.67;36.64;97410.94;4966708;28;20141;-63
2023/06/13 07:28:06;;;;;;;16.27;3.63;;;;;;;39.64;34.89;97408.22;4969912;28;20046;-63
2023/06/13 07:30:35;;;;;;;17.25;4.35;;;;;;;39.81;35.86;97408.00;4963121;28;20072;-63
2023/06/13 07:33:05;;;;;;;18.27;4.40;;;;;;;39.81;34.87;97393.34;4966050;28;20485;-63
2023/06/13 07:35:35;;;;;;;12.93;3.65;;;;;;;39.69;35.74;97399.44;4964706;28;20051;-63
2023/06/13 07:38:04;;;;;;;23.35;4.20;;;;;;;39.71;35.19;97394.25;4957054;28;20102;-64
2023/06/13 07:40:33;;;;;;;18.02;3.83;;;;;;;39.89;36.21;97400.38;4966204;28;20060;-63
2023/06/13 07:43:03;;;;;;;20.65;4.18;;;;;;;39.88;35.87;97409.88;4953380;28;20544;-63
2023/06/13 07:45:32;;;;;;;16.45;3.95;;;;;;;39.73;35.17;97397.41;4955016;28;20051;-63
2023/06/13 07:48:03;;;;;;;21.77;3.85;;;;;;;39.87;35.33;97391.69;4967791;28;20042;-64
2023/06/13 07:53:20;;;;;;;16.42;3.63;;;;;;;39.82;34.51;97390.16;4951926;28;20051;-62
2023/06/13 07:55:50;;;;;;;19.60;3.92;;;;;;;39.78;35.40;97386.66;4948325;28;20050;-62
2023/06/13 07:58:20;;;;;;;25.63;3.92;;;;;;;39.84;35.31;97382.19;4953229;28;20162;-64
2023/06/13 08:00:50;;;;;;;17.92;3.45;;;;;;;39.71;34.84;97375.63;4965375;28;20039;-63
2023/06/13 08:03:19;;;;;;;20.58;4.05;;;;;;;39.82;38.29;97379.06;4964251;28;20054;-64
2023/06/13 08:05:54;;;;;;;20.17;3.83;;;;;;;39.72;36.12;97379.97;4972187;28;20137;-63
2023/06/13 08:08:23;;;;;;;31.67;4.80;;;;;;;39.72;36.04;97371.66;4951880;28;20065;-63
2023/06/13 08:10:52;;;;;;;23.42;4.50;;;;;;;39.77;35.75;97376.78;4966504;28;20055;-64
2023/06/13 08:13:22;;;;;;;20.38;4.43;;;;;;;39.60;37.03;97375.00;4966117;28;20070;-62
2023/06/13 08:15:53;;;;;;;24.67;3.78;;;;;;;39.40;36.68;97371.28;4954781;28;20149;-63
2023/06/13 08:18:22;;;;;;;14.98;3.92;;;;;;;39.41;36.94;97364.56;4954903;28;20051;-64
2023/06/13 08:20:51;;;;;;;20.63;4.20;;;;;;;39.45;36.31;97363.31;4949461;28;20066;-64
2023/06/13 08:23:21;;;;;;;20.20;4.32;;;;;;;39.49;35.94;97360.47;4965743;28;20054;-62
2023/06/13 08:25:50;;;;;;;21.55;4.35;;;;;;;39.40;36.10;97362.97;4966402;28;20055;-62
2023/06/13 08:28:20;;;;;;;14.57;3.85;;;;;;;39.38;34.42;97363.41;4966276;28;20051;-62
2023/06/13 08:30:50;;;;;;;20.40;3.60;;;;;;;39.31;35.83;97357.16;4957804;28;20074;-61
2023/06/13 08:33:21;;;;;;;19.50;4.10;;;;;;;39.36;37.06;97354.72;4965721;28;20054;-63
2023/06/13 08:35:50;;;;;;;16.27;3.38;;;;;;;39.39;35.01;97347.56;4965329;28;20047;-62
2023/06/13 08:38:21;;;;;;;23.67;4.20;;;;;;;39.33;35.59;97346.44;4965397;28;20138;-63
2023/06/13 08:41:03;;;;;;;30.95;5.65;;;;;;;39.26;35.91;97344.50;4961362;28;20054;-62
2023/06/13 08:43:32;;;;;;;14.30;3.35;;;;;;;39.18;34.98;97342.25;4957800;28;20065;-62
2023/06/13 08:46:02;;;;;;;15.63;4.20;;;;;;;39.03;36.09;97347.97;4963464;28;20054;-61
2023/06/13 08:48:33;;;;;;;21.33;3.80;;;;;;;38.88;36.59;97343.78;4965793;28;20065;-60
2023/06/13 08:51:05;;;;;;;13.68;3.88;;;;;;;38.76;37.93;97335.97;4964513;28;20360;-61
2023/06/13 08:53:42;;;;;;;18.13;4.07;;;;;;;38.42;39.38;97330.34;4964581;28;20047;-62
2023/06/13 08:56:12;;;;;;;16.80;3.92;;;;;;;37.98;39.99;97330.31;4962317;28;20046;-62
2023/06/13 08:58:43;;;;;;;17.30;4.30;;;;;;;37.87;40.46;97330.38;4964726;28;20054;-62
2023/06/13 09:01:17;;;;;;;23.55;4.32;;;;;;;37.71;41.92;97327.28;4946777;28;20170;-62
2023/06/13 09:03:52;;;;;;;16.13;4.18;;;;;;;37.79;40.75;97320.56;4964405;28;20065;-61
2023/06/13 09:06:22;;;;;;;24.75;4.78;;;;;;;37.74;39.21;97319.00;4967554;28;20043;-60
2023/06/13 09:08:53;;;;;;;20.60;5.88;;;;;;;37.71;40.42;97307.94;4959054;28;20153;-62
2023/06/13 09:11:23;;;;;;;28.13;4.88;;;;;;;37.00;43.00;97315.78;4959728;28;20054;-63
2023/06/13 09:13:55;;;;;;;22.90;3.92;;;;;;;36.03;45.23;97306.00;4969747;28;20054;-62
2023/06/13 09:16:25;;;;;;;20.60;6.50;;;;;;;35.40;48.81;97303.94;4969023;28;20047;-62
2023/06/13 09:18:56;;;;;;;14.05;3.80;;;;;;;35.05;49.04;97302.59;4966069;28;20098;-61
2023/06/13 09:21:27;;;;;;;18.75;5.57;;;;;;;34.89;49.37;97307.63;4965402;28;20039;-61
2023/06/13 09:24:00;;;;;;;24.42;6.25;;;;;;;34.58;50.87;97288.97;4956335;28;20055;-62
2023/06/13 09:26:30;;;;;;;;;;;;;;;34.67;50.44;97292.97;4954528;28;20043;-62
2023/06/13 09:29:00;;;;;;;16.00;4.90;;;;;;;34.75;50.76;97291.03;4969168;28;19922;-62
2023/06/13 09:31:43;;;;;;;21.08;4.10;;;;;;;34.79;49.12;97282.84;4967642;28;20047;-62
2023/06/13 09:34:16;;;;;;;17.35;4.05;;;;;;;34.84;50.21;97290.69;4968957;28;20050;-61
2023/06/13 09:36:46;;;;;;;17.83;4.35;;;;;;;34.83;50.88;97278.91;4969496;28;20061;-62
2023/06/13 09:39:15;;;;;;;15.80;4.75;;;;;;;34.91;50.23;97279.75;4959380;28;20050;-61
2023/06/13 09:41:45;;;;;;;19.85;4.18;;;;;;;34.81;49.98;97275.75;4968971;28;20658;-60
2023/06/13 09:44:15;;;;;;;19.48;3.80;;;;;;;34.92;48.02;97264.81;4955606;28;20051;-61
2023/06/13 09:46:45;;;;;;;21.75;4.15;;;;;;;34.80;49.23;97270.63;4968390;28;20050;-61
2023/06/13 09:49:17;;;;;;;23.45;4.82;;;;;;;34.71;50.01;97260.78;4967960;28;20066;-61
2023/06/13 09:51:47;;;;;;;22.23;4.40;;;;;;;35.04;49.22;97250.69;4968871;28;20054;-60
2023/06/13 09:54:16;;;;;;;26.38;4.20;;;;;;;34.91;49.66;97257.72;4968115;28;20141;-61
2023/06/13 09:56:45;;;;;;;22.50;5.72;;;;;;;34.80;50.11;97240.38;4968498;28;20074;-60
2023/06/13 09:59:18;;;;;;;21.77;4.53;;;;;;;34.93;48.79;97249.84;4968239;28;20775;-60
2023/06/13 10:01:47;;;;;;;;;;;;;;;34.76;49.44;97247.81;4957216;28;20096;-61
2023/06/13 10:04:18;;;;;;;20.85;4.07;;;;;;;34.70;49.19;97247.41;4967642;28;20025;-62
2023/06/13 10:06:48;;;;;;;18.63;4.20;;;;;;;34.67;49.97;97237.97;4967598;28;20051;-63
2023/06/13 10:09:17;;;;;;;16.38;3.78;;;;;;;34.92;49.08;97229.78;4968331;28;20058;-62
2023/06/13 10:11:51;;;;;;;17.00;4.00;;;;;;;34.79;50.04;97227.81;4959316;28;20055;-63
2023/06/13 10:14:23;;;;;;;26.30;3.90;;;;;;;34.93;48.69;97217.63;4966057;28;20161;-62
2023/06/13 10:17:03;;;;;;;20.15;3.47;;;;;;;34.70;48.85;97208.88;4968690;28;20539;-62
2023/06/13 10:19:40;;;;;;;22.52;4.03;;;;;;;34.59;50.60;97214.31;4965445;28;20050;-61
2023/06/13 10:22:10;;;;;;;24.73;4.10;;;;;;;34.76;50.15;97217.56;4964678;28;20077;-61
2023/06/13 10:24:41;;;;;;;16.90;3.95;;;;;;;34.68;50.01;97220.28;4955485;28;20058;-61
2023/06/13 10:27:14;;;;;;;27.30;5.60;;;;;;;34.70;50.32;97225.38;4968021;28;20046;-61
2023/06/13 10:30:09;;;;;;;15.02;3.55;;;;;;;34.66;50.14;97213.59;4969880;28;20058;-62
2023/06/13 10:32:56;;;;;;;23.02;3.78;;;;;;;34.61;50.67;97211.97;4965415;28;20049;-62
2023/06/13 10:35:50;;;;;;;29.45;4.32;;;;;;;34.59;50.75;97214.31;4960019;28;20056;-61
2023/06/13 10:38:21;;;;;;;27.08;4.72;;;;;;;34.63;51.22;97219.84;4970587;28;20055;-62
2023/06/13 10:41:05;;;;;;;21.35;4.10;;;;;;;34.74;50.56;97215.22;4968320;28;20395;-63
2023/06/13 10:43:42;;;;;;;27.30;4.10;;;;;;;34.68;50.42;97220.28;4965663;28;20047;-62
2023/06/13 10:46:13;;;;;;;23.10;4.45;;;;;;;34.57;51.18;97216.66;4967596;28;20765;-62
2023/06/13 10:48:55;;;;;;;23.45;4.97;;;;;;;34.61;50.37;97211.19;4967774;28;20137;-63
2023/06/13 10:51:30;;;;;;;19.15;3.80;;;;;;;34.58;50.41;97220.19;4958251;28;20787;-62
2023/06/13 10:54:11;;;;;;;20.77;3.88;;;;;;;34.74;48.80;97204.22;4967533;28;20046;-61
2023/06/13 10:56:43;;;;;;;27.23;5.13;;;;;;;34.53;50.74;97213.09;4967346;28;20137;-62
2023/06/13 10:59:16;;;;;;;23.17;3.92;;;;;;;34.48;51.07;97220.94;4967010;28;20046;-62
2023/06/13 11:01:46;;;;;;;25.13;3.75;;;;;;;34.33;51.29;97211.84;4967800;28;20047;-62
2023/06/13 11:04:17;;;;;;;35.03;4.85;;;;;;;34.49;50.33;97215.06;4956636;28;20145;-63
2023/06/13 11:06:51;;;;;;;24.88;4.10;;;;;;;34.44;50.48;97206.38;4967893;28;20050;-61
2023/06/13 11:09:23;;;;;;;36.58;4.93;;;;;;;34.63;49.50;97204.13;4957442;28;20420;-63
2023/06/13 11:11:55;;;;;;;35.07;5.47;;;;;;;34.36;51.26;97193.75;4963671;28;20050;-62
2023/06/13 11:14:43;;;;;;;19.38;3.85;;;;;;;34.47;50.46;97187.16;4966386;28;20104;-62
2023/06/13 11:17:13;;;;;;;22.17;4.20;;;;;;;34.44;51.42;97179.66;4960332;28;20565;-62
2023/06/13 11:19:42;;;;;;;28.75;6.32;;;;;;;34.33;51.72;97189.84;4964690;28;20063;-62
2023/06/13 11:22:15;;;;;;;30.13;4.43;;;;;;;34.24;52.67;97194.91;4953323;28;20065;-62
2023/06/13 11:24:44;;;;;;;30.38;5.80;;;;;;;34.40;51.99;97198.13;4966860;28;20057;-62
2023/06/13 11:27:16;;;;;;;33.38;4.25;;;;;;;34.46;51.10;97193.03;4957845;28;20154;-63
2023/06/13 11:29:46;;;;;;;21.77;4.00;;;;;;;34.49;50.94;97200.50;4969806;28;20054;-63
2023/06/13 11:32:17;;;;;;;28.85;4.70;;;;;;;34.41;50.99;97199.69;4966512;28;20050;-63
2023/06/13 11:34:54;;;;;;;26.38;4.40;;;;;;;34.31;51.24;97183.94;4948879;28;20137;-62
2023/06/13 11:37:56;;;;;;;36.83;5.05;;;;;;;34.18;51.15;97179.94;4954854;28;20448;-62
2023/06/13 11:40:42;;;;;;;22.48;4.68;;;;;;;34.30;50.72;97171.34;4963736;28;20117;-63
2023/06/13 11:43:13;;;;;;;31.83;4.38;;;;;;;34.19;51.41;97176.00;4952942;28;20038;-63
2023/06/13 11:45:45;;;;;;;29.08;4.60;;;;;;;34.20;50.76;97156.41;4957668;28;20146;-62
2023/06/13 11:48:22;;;;;;;20.47;4.27;;;;;;;34.19;51.91;97162.25;4966363;28;20057;-62